Terminal Aerodrome Forecast
Issued by NWS

Current Version | Previous Version | Text Only | Print | Product List | Glossary On
Versions: 1 2 3 4 5 6 7 8 9 10 11 12 13 14 15 16 17 18 19 20 21 22 23 24 25 26 27 28 29 30 31 32 33 34 35 36
411
FTUS41 KRNK 231803 RRA
TAFLWB
TAF
KLWB 231803Z 2318/2418 06013G19KT P6SM OVC020
     FM232300 35006KT 6SM -SHRA OVC010
     FM240600 32009KT P6SM VCSH OVC015
     FM241100 30009G17KT P6SM BKN015=

USA.gov is the U.S. government's official web portal to all federal, state and local government web resources and services.